Time;durP1;ratioP1;P1;durP2;ratioP2;P2;SDS_P1;SDS_P2;PMS_P1;PMS_P2;Temp;Humidity;BMP_temperature;BMP_pressure;BME280_temperature;BME280_humidity;BME280_pressure;Samples;Min_cycle;Max_cycle;Signal;HPM_P1;HPM_P2
2023/07/09 00:02:17;;;;;;;16.02;8.15;;;;;;;19.76;78.33;100786.16;5121184;27;20019;-74
2023/07/09 00:04:43;;;;;;;17.10;8.27;;;;;;;19.71;78.46;100788.59;5126647;27;20039;-74
2023/07/09 00:07:34;;;;;;;19.55;8.63;;;;;;;19.66;78.64;100782.84;5119257;27;20027;-74
2023/07/09 00:10:00;;;;;;;14.95;7.53;;;;;;;19.64;78.87;100798.50;5123817;27;20051;-74
2023/07/09 00:12:26;;;;;;;13.00;8.05;;;;;;;19.61;79.22;100801.56;5115426;27;20092;-74
2023/07/09 00:14:51;;;;;;;16.70;7.85;;;;;;;19.48;79.38;100782.28;5119133;27;20080;-73
2023/07/09 00:17:33;;;;;;;17.50;8.30;;;;;;;19.54;79.83;100795.16;5123950;27;20023;-74
2023/07/09 00:19:59;;;;;;;17.70;7.97;;;;;;;19.53;80.45;100804.38;5121349;27;20700;-74
2023/07/09 00:22:26;;;;;;;16.45;7.55;;;;;;;19.37;80.65;100782.72;5120422;27;20023;-75
2023/07/09 00:24:56;;;;;;;16.15;8.65;;;;;;;19.46;80.71;100803.41;5123790;27;20075;-76
2023/07/09 00:27:25;;;;;;;14.13;8.18;;;;;;;19.42;81.19;100815.69;5113611;27;20038;-74
2023/07/09 00:29:52;;;;;;;15.32;8.13;;;;;;;19.39;81.29;100798.84;5124706;27;20030;-73
2023/07/09 00:32:24;;;;;;;15.27;8.02;;;;;;;19.25;81.49;100786.81;5130069;27;20468;-73
2023/07/09 00:34:52;;;;;;;13.93;7.28;;;;;;;19.18;81.58;100782.28;5126029;27;20526;-74
2023/07/09 00:37:25;;;;;;;15.57;8.40;;;;;;;19.30;82.35;100803.50;5123620;27;20491;-74
2023/07/09 00:39:51;;;;;;;11.63;7.38;;;;;;;19.21;82.67;100793.66;5139794;27;20015;-73
2023/07/09 00:42:19;;;;;;;15.93;7.90;;;;;;;19.12;82.47;100777.56;5135112;27;20011;-73
2023/07/09 00:44:46;;;;;;;13.07;6.95;;;;;;;19.10;83.02;100788.63;5138497;27;20038;-74
2023/07/09 00:47:41;;;;;;;15.35;7.50;;;;;;;19.20;82.86;100811.00;5142395;27;20028;-73
2023/07/09 00:50:21;;;;;;;20.50;7.47;;;;;;;19.10;83.52;100791.34;5140171;27;20126;-74
2023/07/09 00:52:56;;;;;;;14.18;7.88;;;;;;;19.17;84.22;100805.91;5144078;27;20042;-75
2023/07/09 00:55:30;;;;;;;13.80;7.22;;;;;;;19.14;84.01;100803.56;5135137;27;20032;-74
2023/07/09 00:58:01;;;;;;;11.20;6.78;;;;;;;18.96;84.40;100780.38;5134506;27;20481;-73
2023/07/09 01:00:46;;;;;;;13.23;6.60;;;;;;;19.09;83.97;100811.38;5136703;27;20038;-74
2023/07/09 01:03:13;;;;;;;;;;;;;;;19.06;84.35;100806.28;5135987;27;20023;-74
2023/07/09 01:05:39;;;;;;;12.77;7.55;;;;;;;19.01;84.44;100807.84;5140250;27;19959;-74
2023/07/09 01:08:09;;;;;;;10.27;7.05;;;;;;;18.96;84.20;100802.13;5175733;27;20038;-73
2023/07/09 01:10:35;;;;;;;12.95;6.45;;;;;;;18.98;84.23;100800.06;5143962;27;20046;-74
2023/07/09 01:13:01;;;;;;;12.25;7.32;;;;;;;18.85;84.17;100781.59;5131360;27;20061;-74
2023/07/09 01:15:26;;;;;;;14.88;6.82;;;;;;;18.81;84.07;100780.25;5121404;27;20020;-74
2023/07/09 01:17:53;;;;;;;13.07;6.43;;;;;;;18.88;84.30;100794.84;5116302;27;20093;-73
2023/07/09 01:20:20;;;;;;;12.98;6.78;;;;;;;18.84;84.31;100801.66;5114545;27;20031;-74
2023/07/09 01:22:48;;;;;;;14.10;7.30;;;;;;;18.65;84.67;100764.03;5117572;27;20461;-74
2023/07/09 01:25:14;;;;;;;11.57;7.43;;;;;;;18.66;84.89;100775.72;5121414;27;20027;-74
2023/07/09 01:27:43;;;;;;;13.90;7.13;;;;;;;18.61;84.65;100770.84;5119158;27;20073;-74
2023/07/09 01:30:22;;;;;;;11.23;6.80;;;;;;;18.54;84.76;100769.81;5117089;27;20060;-73
2023/07/09 01:32:49;;;;;;;13.48;7.22;;;;;;;18.67;84.85;100785.59;5115150;27;20041;-74
2023/07/09 01:35:17;;;;;;;13.63;7.05;;;;;;;18.71;85.06;100801.38;5113836;27;20164;-74
2023/07/09 01:37:43;;;;;;;10.52;7.38;;;;;;;18.64;85.57;100789.47;5109736;27;20270;-74
2023/07/09 01:40:11;;;;;;;15.30;7.97;;;;;;;18.69;85.53;100802.53;5108629;27;20023;-74
2023/07/09 01:42:38;;;;;;;12.07;7.32;;;;;;;18.52;85.94;100773.72;5111139;27;20023;-74
2023/07/09 01:45:05;;;;;;;11.13;6.75;;;;;;;18.42;85.96;100764.94;5111953;27;20031;-74
2023/07/09 01:47:31;;;;;;;11.23;6.97;;;;;;;18.63;85.80;100804.09;5116884;27;20019;-74
2023/07/09 01:49:57;;;;;;;8.07;6.63;;;;;;;18.52;85.43;100798.19;5114585;27;20080;-75
2023/07/09 01:52:27;;;;;;;11.07;7.15;;;;;;;18.54;85.82;100799.69;5114005;27;20027;-74
2023/07/09 01:54:53;;;;;;;10.63;7.00;;;;;;;18.39;85.99;100777.00;4748065;27;10000140;-73
2023/07/09 01:57:24;;;;;;;12.98;6.88;;;;;;;18.55;85.71;100806.84;5106475;27;20036;-74
2023/07/09 01:59:51;;;;;;;13.32;6.78;;;;;;;18.56;85.78;100811.25;5109486;27;20467;-74
2023/07/09 02:02:20;;;;;;;13.13;7.20;;;;;;;18.47;85.47;100789.72;5108534;27;20019;-74
2023/07/09 02:04:50;;;;;;;10.60;6.60;;;;;;;18.54;85.30;100812.47;5111767;27;20046;-74
2023/07/09 02:07:17;;;;;;;12.20;6.50;;;;;;;18.42;85.43;100801.09;5114118;27;20034;-74
2023/07/09 02:09:42;;;;;;;13.70;6.43;;;;;;;18.48;85.62;100805.84;5113560;27;20134;-74
2023/07/09 02:12:10;;;;;;;13.30;6.60;;;;;;;18.31;85.69;100781.59;5105761;27;20034;-73
2023/07/09 02:14:36;;;;;;;11.75;7.45;;;;;;;18.46;85.85;100807.88;5109510;27;20494;-73
2023/07/09 02:17:02;;;;;;;9.95;6.82;;;;;;;18.38;85.85;100797.03;5109433;28;20023;-74
2023/07/09 02:19:29;;;;;;;15.40;6.38;;;;;;;18.40;85.43;100808.56;5118884;27;20047;-74
2023/07/09 02:21:55;;;;;;;12.40;6.32;;;;;;;18.45;85.39;100824.34;5123302;27;20489;-73
2023/07/09 02:24:24;;;;;;;11.07;6.65;;;;;;;18.44;85.30;100825.38;5115325;28;20030;-74
2023/07/09 02:26:59;;;;;;;12.27;6.15;;;;;;;18.39;85.06;100816.88;5119678;27;20080;-74
2023/07/09 02:29:26;;;;;;;13.27;6.78;;;;;;;18.40;85.55;100822.16;5107748;28;20449;-74
2023/07/09 02:31:54;;;;;;;12.30;6.75;;;;;;;18.39;85.90;100822.31;5114381;28;20034;-73
2023/07/09 02:34:19;;;;;;;18.48;7.10;;;;;;;18.31;86.05;100808.75;5110494;28;20082;-74
2023/07/09 02:36:45;;;;;;;9.23;6.47;;;;;;;18.27;85.93;100813.66;5112820;27;20422;-73
2023/07/09 02:39:13;;;;;;;11.88;6.30;;;;;;;18.34;86.45;100827.41;5113216;28;20498;-73
2023/07/09 02:41:41;;;;;;;12.48;7.30;;;;;;;18.22;86.44;100809.75;5118699;27;20513;-74
2023/07/09 02:44:07;;;;;;;18.13;6.97;;;;;;;18.30;86.09;100824.19;5120825;27;20430;-74
2023/07/09 02:46:33;;;;;;;8.73;6.63;;;;;;;18.00;86.14;100771.41;5115895;28;20038;-74
2023/07/09 02:48:59;;;;;;;11.32;6.78;;;;;;;18.12;86.49;100799.06;5114614;27;20482;-73
2023/07/09 02:51:28;;;;;;;14.50;6.50;;;;;;;18.16;86.27;100811.31;5113507;27;20027;-73
2023/07/09 02:53:55;;;;;;;11.52;6.45;;;;;;;18.17;86.37;100814.84;5116888;27;20081;-73
2023/07/09 02:56:31;;;;;;;9.50;6.50;;;;;;;18.19;86.33;100826.41;5121544;28;20038;-73
2023/07/09 02:59:03;;;;;;;13.35;7.45;;;;;;;18.19;86.04;100832.69;5122602;28;20036;-74
2023/07/09 03:01:37;;;;;;;11.93;6.40;;;;;;;18.18;85.91;100836.41;5129742;28;20034;-75
2023/07/09 03:04:06;;;;;;;9.40;6.35;;;;;;;18.09;86.07;100826.59;5129914;28;20027;-74
2023/07/09 03:06:33;;;;;;;11.25;6.90;;;;;;;18.17;86.78;100845.56;5128541;27;20090;-74
2023/07/09 03:09:00;;;;;;;13.35;7.07;;;;;;;17.98;87.20;100807.91;5106724;27;20165;-75
2023/07/09 03:11:27;;;;;;;13.27;6.97;;;;;;;18.09;87.36;100832.03;5105941;28;20123;-74
2023/07/09 03:13:53;;;;;;;13.90;6.75;;;;;;;18.02;87.21;100826.41;5116449;28;20073;-73
2023/07/09 03:16:19;;;;;;;13.95;7.55;;;;;;;17.87;87.38;100794.69;5116630;27;20168;-74
2023/07/09 03:18:45;;;;;;;16.85;7.50;;;;;;;17.99;87.71;100825.88;5111020;28;20521;-73
2023/07/09 03:21:10;;;;;;;12.57;7.30;;;;;;;17.93;87.60;100815.72;5116081;27;20583;-74
2023/07/09 03:23:36;;;;;;;15.35;7.53;;;;;;;18.03;87.80;100838.94;5111730;28;20544;-74
2023/07/09 03:26:01;;;;;;;14.35;7.05;;;;;;;18.03;88.03;100832.69;5119171;27;20080;-75
2023/07/09 03:28:27;;;;;;;15.50;7.20;;;;;;;17.93;88.11;100829.31;5114981;27;20027;-74
2023/07/09 03:30:55;;;;;;;20.48;7.63;;;;;;;18.05;87.88;100850.50;5125355;27;20577;-74
2023/07/09 03:33:20;;;;;;;16.33;7.15;;;;;;;17.92;87.80;100828.44;5111874;27;20110;-75
2023/07/09 03:35:46;;;;;;;13.32;6.90;;;;;;;18.04;87.48;100851.53;5121137;27;20107;-74
2023/07/09 03:38:11;;;;;;;16.00;7.43;;;;;;;18.04;87.43;100850.66;5119402;27;20028;-74
2023/07/09 03:40:38;;;;;;;13.52;7.78;;;;;;;18.03;87.80;100851.69;5121222;27;20516;-74
2023/07/09 03:43:08;;;;;;;16.25;7.60;;;;;;;18.04;87.85;100851.53;5119220;27;20032;-74
2023/07/09 03:45:34;;;;;;;13.45;7.85;;;;;;;18.05;88.03;100852.34;5122907;27;20390;-74
2023/07/09 03:48:00;;;;;;;16.23;7.88;;;;;;;17.83;88.78;100821.31;5120768;27;20027;-75
2023/07/09 03:50:26;;;;;;;11.60;8.15;;;;;;;18.00;88.92;100838.47;5121794;27;20023;-75
2023/07/09 03:52:51;;;;;;;17.48;8.45;;;;;;;17.93;89.19;100830.13;5123819;27;20031;-72
2023/07/09 03:55:17;;;;;;;14.32;8.30;;;;;;;17.95;89.33;100827.25;5117920;27;20028;-74
2023/07/09 03:57:42;;;;;;;18.95;9.18;;;;;;;17.43;89.35;100730.91;5121470;27;20027;-75
2023/07/09 04:00:11;;;;;;;16.83;8.35;;;;;;;17.96;88.78;100824.38;5120212;27;20023;-74
2023/07/09 04:02:39;;;;;;;17.30;7.60;;;;;;;18.01;88.50;100832.00;5120860;27;20024;-73
2023/07/09 04:05:06;;;;;;;18.58;8.55;;;;;;;18.13;88.77;100836.09;5114086;27;20496;-74
2023/07/09 04:07:32;;;;;;;23.15;8.75;;;;;;;18.16;89.54;100843.88;5128634;27;20581;-74
2023/07/09 04:09:57;;;;;;;25.38;10.02;;;;;;;18.20;89.81;100847.09;5120034;27;20058;-74
2023/07/09 04:12:23;;;;;;;23.55;8.90;;;;;;;18.25;90.21;100842.84;5125968;27;20031;-74
2023/07/09 04:14:48;;;;;;;22.00;8.90;;;;;;;18.34;90.63;100847.25;5122251;27;20031;-74
2023/07/09 04:17:13;;;;;;;22.67;8.60;;;;;;;18.55;89.57;100850.31;5124205;27;20023;-75
2023/07/09 04:19:39;;;;;;;16.27;7.82;;;;;;;18.69;88.29;100852.31;5120285;27;20114;-73
2023/07/09 04:22:04;;;;;;;18.23;8.75;;;;;;;18.89;87.07;100859.03;5120531;27;20528;-73
2023/07/09 04:24:31;;;;;;;28.13;8.30;;;;;;;19.12;85.36;100854.53;5119108;27;20478;-75
2023/07/09 04:26:57;;;;;;;15.15;7.97;;;;;;;19.37;84.19;100852.59;5120563;27;20023;-75
2023/07/09 04:29:25;;;;;;;21.10;8.27;;;;;;;19.55;82.98;100842.28;5120318;27;20049;-75
2023/07/09 04:31:50;;;;;;;13.02;7.82;;;;;;;19.75;81.90;100838.94;5122698;27;20027;-75
2023/07/09 04:34:16;;;;;;;17.10;7.22;;;;;;;19.99;80.48;100836.00;5119269;27;20087;-75
2023/07/09 04:36:41;;;;;;;15.10;7.28;;;;;;;20.27;78.82;100847.19;5122464;27;20032;-74
2023/07/09 04:39:07;;;;;;;12.85;7.05;;;;;;;20.19;78.01;100796.34;5120015;27;20075;-74
2023/07/09 04:41:33;;;;;;;9.88;6.40;;;;;;;20.66;76.68;100830.66;5112409;27;20398;-75
2023/07/09 04:43:58;;;;;;;10.48;6.63;;;;;;;20.74;75.14;100811.47;5119954;27;20042;-75
2023/07/09 04:46:23;;;;;;;15.13;6.55;;;;;;;21.15;73.85;100845.44;5118504;27;20035;-75
2023/07/09 04:48:49;;;;;;;17.63;6.28;;;;;;;21.11;72.86;100811.34;5116280;27;20033;-73
2023/07/09 04:51:14;;;;;;;10.77;5.60;;;;;;;21.32;71.84;100816.88;5125052;27;20031;-74
2023/07/09 04:53:40;;;;;;;7.25;5.10;;;;;;;21.35;70.69;100803.69;5116819;27;20026;-74
2023/07/09 04:56:06;;;;;;;8.32;5.28;;;;;;;21.56;68.60;100828.31;5118511;27;20023;-74
2023/07/09 04:58:31;;;;;;;7.68;4.63;;;;;;;21.57;65.87;100826.44;5127153;27;20022;-75
2023/07/09 05:00:58;;;;;;;7.20;4.40;;;;;;;21.75;65.56;100844.09;5117196;27;20080;-75
2023/07/09 05:03:23;;;;;;;9.43;5.80;;;;;;;21.89;64.78;100848.66;5115219;27;20410;-75
2023/07/09 05:05:49;;;;;;;8.68;4.60;;;;;;;21.98;60.66;100825.63;5160297;27;20019;-75
2023/07/09 05:08:15;;;;;;;7.47;4.93;;;;;;;22.11;61.40;100828.47;5110414;27;20047;-75
2023/07/09 05:10:42;;;;;;;6.30;4.95;;;;;;;22.16;61.66;100820.53;5114573;27;20043;-73
2023/07/09 05:13:08;;;;;;;8.20;5.15;;;;;;;22.33;60.81;100823.81;5116166;27;20114;-75
2023/07/09 05:15:33;;;;;;;8.63;4.82;;;;;;;22.35;60.72;100806.16;5111550;27;20106;-74
2023/07/09 05:17:58;;;;;;;8.55;5.03;;;;;;;22.71;60.55;100848.97;5122759;27;20035;-78
2023/07/09 05:20:24;;;;;;;9.95;4.97;;;;;;;22.86;59.37;100831.38;5119448;27;20019;-75
2023/07/09 05:22:50;;;;;;;8.73;4.78;;;;;;;23.08;58.36;100832.16;5120115;27;20024;-74
2023/07/09 05:25:16;;;;;;;7.90;5.40;;;;;;;23.22;57.92;100837.50;5111827;27;20033;-75
2023/07/09 05:27:42;;;;;;;8.98;4.82;;;;;;;23.44;58.15;100858.22;5118808;27;20096;-75
2023/07/09 05:30:08;;;;;;;7.95;5.15;;;;;;;23.48;57.72;100837.63;5151298;27;20034;-74
2023/07/09 05:32:34;;;;;;;5.13;4.28;;;;;;;23.64;57.36;100841.88;5119949;27;20018;-75
2023/07/09 05:34:59;;;;;;;11.63;5.32;;;;;;;23.84;57.26;100848.25;5116853;27;20088;-74
2023/07/09 05:37:24;;;;;;;8.35;4.40;;;;;;;23.87;56.75;100831.41;5118848;27;20026;-75
2023/07/09 05:39:52;;;;;;;5.53;4.15;;;;;;;23.94;56.52;100818.56;5122217;27;20022;-75
2023/07/09 05:42:18;;;;;;;7.05;4.50;;;;;;;24.33;55.28;100844.13;5116706;27;20019;-74
2023/07/09 05:44:43;;;;;;;8.38;4.45;;;;;;;24.45;55.36;100852.56;5119177;27;20592;-74
2023/07/09 05:47:09;;;;;;;4.95;4.10;;;;;;;24.58;55.24;100858.03;5120254;27;20079;-74
2023/07/09 05:49:34;;;;;;;7.00;4.32;;;;;;;24.65;55.62;100849.81;5119408;27;20457;-75
2023/07/09 05:52:00;;;;;;;7.30;4.45;;;;;;;24.91;54.72;100856.13;5119504;27;20024;-74
2023/07/09 05:54:25;;;;;;;9.98;4.95;;;;;;;24.94;53.71;100819.16;5117060;27;20039;-74
2023/07/09 05:56:51;;;;;;;7.60;4.65;;;;;;;25.21;54.00;100857.28;5116459;27;20019;-74
2023/07/09 05:59:16;;;;;;;7.35;4.55;;;;;;;25.34;53.81;100854.53;5114097;27;20764;-73
2023/07/09 06:01:42;;;;;;;6.30;4.13;;;;;;;25.46;53.02;100835.47;5121230;27;20015;-73
2023/07/09 06:04:07;;;;;;;7.35;4.45;;;;;;;25.76;51.54;100847.59;5117676;27;20030;-73
2023/07/09 06:06:33;;;;;;;5.72;4.20;;;;;;;25.92;50.89;100847.06;5115843;27;20470;-75
2023/07/09 06:08:58;;;;;;;13.80;4.53;;;;;;;25.92;51.51;100838.81;5120298;27;20031;-74
2023/07/09 06:11:23;;;;;;;8.57;4.40;;;;;;;26.04;51.35;100839.81;5121194;27;20031;-74
2023/07/09 06:13:49;;;;;;;6.03;4.13;;;;;;;26.24;49.89;100835.00;5113781;27;20027;-75
2023/07/09 06:16:15;;;;;;;4.80;3.80;;;;;;;26.58;49.07;100856.53;5119392;27;20027;-74
2023/07/09 06:18:41;;;;;;;6.88;4.10;;;;;;;26.71;48.99;100853.69;5116356;27;20027;-74
2023/07/09 06:21:09;;;;;;;7.72;4.20;;;;;;;26.81;47.88;100831.13;5116216;28;20110;-73
2023/07/09 06:23:34;;;;;;;6.85;4.57;;;;;;;27.04;47.14;100848.66;5121947;28;20022;-73
2023/07/09 06:26:00;;;;;;;12.88;4.80;;;;;;;27.20;46.66;100856.31;5117261;28;20485;-74
2023/07/09 06:28:28;;;;;;;8.38;4.78;;;;;;;27.28;46.45;100860.72;5111458;28;20520;-74
2023/07/09 06:30:54;;;;;;;9.43;4.78;;;;;;;27.34;46.95;100863.38;5108794;28;20032;-75
2023/07/09 06:33:20;;;;;;;7.15;4.70;;;;;;;27.42;45.21;100837.44;5116505;28;20158;-74
2023/07/09 06:35:55;;;;;;;7.10;4.70;;;;;;;27.64;44.62;100850.50;5113857;28;20850;-73
2023/07/09 06:38:22;;;;;;;9.52;4.22;;;;;;;27.65;44.63;100838.41;5113532;28;20122;-74
2023/07/09 06:40:47;;;;;;;6.07;4.28;;;;;;;27.79;44.66;100848.16;5109095;28;20027;-74
2023/07/09 06:43:13;;;;;;;8.05;5.28;;;;;;;28.00;43.28;100838.56;5118643;28;20503;-75
2023/07/09 06:45:39;;;;;;;12.43;6.28;;;;;;;28.26;43.38;100860.22;5115075;27;20023;-74
2023/07/09 06:48:05;;;;;;;8.88;5.68;;;;;;;28.36;42.87;100860.47;5125711;27;20088;-74
2023/07/09 06:50:34;;;;;;;10.32;5.72;;;;;;;28.56;42.06;100863.78;5114471;28;20036;-75
2023/07/09 06:52:59;;;;;;;10.35;5.80;;;;;;;28.46;41.49;100834.00;5113086;28;20584;-75
2023/07/09 06:55:25;;;;;;;9.60;5.57;;;;;;;28.50;41.97;100837.97;5119046;28;20114;-75
2023/07/09 06:57:50;;;;;;;9.30;4.78;;;;;;;28.72;42.24;100865.00;5123180;27;20095;-74
2023/07/09 07:00:16;;;;;;;6.30;4.28;;;;;;;28.80;40.54;100846.16;5114368;28;20070;-75
2023/07/09 07:02:41;;;;;;;7.07;3.90;;;;;;;29.01;40.70;100869.56;5119746;27;20031;-76
2023/07/09 07:05:07;;;;;;;4.55;3.95;;;;;;;29.02;39.86;100861.03;5113937;27;20027;-73
2023/07/09 07:07:32;;;;;;;5.90;3.70;;;;;;;29.00;39.81;100843.00;5118877;27;20103;-75
2023/07/09 07:10:01;;;;;;;5.13;3.47;;;;;;;29.24;39.58;100859.34;5121879;27;20051;-75
2023/07/09 07:12:28;;;;;;;7.10;4.13;;;;;;;29.23;39.33;100848.53;5123659;27;20058;-75
2023/07/09 07:14:55;;;;;;;6.63;3.45;;;;;;;29.27;39.53;100833.16;5119757;27;20062;-73
2023/07/09 07:17:22;;;;;;;8.50;4.00;;;;;;;29.36;39.78;100856.53;5107769;27;20032;-73
2023/07/09 07:19:50;;;;;;;5.00;3.47;;;;;;;29.25;39.92;100838.06;5120893;27;20464;-72
2023/07/09 07:22:15;;;;;;;6.18;4.13;;;;;;;29.48;39.78;100863.75;5118400;27;20447;-72
2023/07/09 07:24:41;;;;;;;11.10;4.00;;;;;;;29.59;39.77;100856.47;5122437;27;20030;-73
2023/07/09 07:27:08;;;;;;;4.60;3.30;;;;;;;29.68;39.33;100847.59;5122239;27;20712;-73
2023/07/09 07:29:33;;;;;;;7.82;4.88;;;;;;;29.92;38.86;100854.69;5117952;27;20023;-73
2023/07/09 07:32:00;;;;;;;6.13;4.32;;;;;;;29.97;38.95;100853.94;5120223;27;20119;-74
2023/07/09 07:34:26;;;;;;;10.20;4.20;;;;;;;30.09;38.14;100852.81;5115796;27;20027;-74
2023/07/09 07:36:51;;;;;;;7.13;3.85;;;;;;;30.15;38.78;100853.75;5122854;27;20079;-74
2023/07/09 07:39:16;;;;;;;7.25;4.10;;;;;;;30.18;38.11;100836.69;5122884;27;20027;-73
2023/07/09 07:41:42;;;;;;;6.70;4.70;;;;;;;30.35;37.92;100856.91;5120847;27;20351;-73
2023/07/09 07:44:08;;;;;;;4.95;3.55;;;;;;;30.36;37.96;100844.72;5122122;27;20023;-73
2023/07/09 07:46:34;;;;;;;4.32;3.65;;;;;;;30.26;37.90;100826.03;5116651;27;20031;-73
2023/07/09 07:48:59;;;;;;;4.72;3.83;;;;;;;30.56;36.98;100853.38;5126143;27;20031;-72
2023/07/09 07:51:25;;;;;;;5.82;3.70;;;;;;;30.60;36.30;100841.53;5109695;28;20833;-72
2023/07/09 07:53:50;;;;;;;4.85;4.07;;;;;;;30.56;36.00;100820.13;5116445;27;20028;-72
2023/07/09 07:56:16;;;;;;;8.25;4.38;;;;;;;30.74;36.06;100853.16;5119866;27;20034;-73
2023/07/09 07:58:41;;;;;;;6.85;4.40;;;;;;;30.75;35.76;100823.53;5118582;27;20035;-74
2023/07/09 08:01:07;;;;;;;8.25;4.32;;;;;;;30.98;35.46;100843.53;5120818;27;20015;-73
2023/07/09 08:03:32;;;;;;;7.50;4.47;;;;;;;31.02;35.68;100841.09;5119262;27;20045;-73
2023/07/09 08:05:58;;;;;;;8.85;3.90;;;;;;;31.10;34.28;100832.31;5125732;27;20046;-73
2023/07/09 08:08:23;;;;;;;7.70;4.25;;;;;;;31.26;34.74;100834.22;5116278;27;20144;-73
2023/07/09 08:10:59;;;;;;;6.18;4.68;;;;;;;31.24;35.38;100839.19;5121941;27;20081;-72
2023/07/09 08:13:25;;;;;;;6.70;4.15;;;;;;;31.14;35.85;100817.69;5117062;27;20083;-72
2023/07/09 08:15:50;;;;;;;4.72;4.18;;;;;;;31.24;35.75;100833.66;5126180;27;20419;-72
2023/07/09 08:18:16;;;;;;;4.13;3.67;;;;;;;31.27;35.60;100833.16;5120996;27;20027;-73
2023/07/09 08:20:44;;;;;;;7.10;3.50;;;;;;;31.43;35.24;100830.31;5119053;27;20030;-73
2023/07/09 08:23:10;;;;;;;4.88;4.00;;;;;;;31.42;35.29;100812.00;5116527;27;20032;-73
2023/07/09 08:25:36;;;;;;;5.50;3.95;;;;;;;31.46;36.15;100828.97;5123969;27;20028;-73
2023/07/09 08:28:01;;;;;;;4.13;3.70;;;;;;;31.48;35.59;100830.38;5119152;27;20030;-73
2023/07/09 08:30:27;;;;;;;4.68;3.83;;;;;;;31.41;35.96;100828.91;5119697;27;20019;-73
2023/07/09 08:32:52;;;;;;;7.03;3.45;;;;;;;31.45;34.67;100833.69;5114203;27;20531;-72
2023/07/09 08:35:18;;;;;;;4.00;3.60;;;;;;;31.46;34.04;100821.47;5114347;27;20113;-73
2023/07/09 08:37:43;;;;;;;4.65;3.58;;;;;;;31.42;34.19;100813.94;5122579;27;20036;-73
2023/07/09 08:40:14;;;;;;;3.70;3.30;;;;;;;31.65;33.84;100839.47;5115540;27;20061;-73
2023/07/09 08:42:47;;;;;;;6.05;4.00;;;;;;;31.62;33.95;100831.66;5119355;27;20024;-73
2023/07/09 08:45:29;;;;;;;6.85;3.80;;;;;;;31.54;34.40;100818.25;5121879;27;20045;-73
2023/07/09 08:48:08;;;;;;;5.40;3.80;;;;;;;31.61;34.36;100816.13;5118584;27;20042;-72
2023/07/09 08:50:42;;;;;;;6.43;3.63;;;;;;;31.68;34.91;100833.41;5117503;27;20019;-72
2023/07/09 08:53:17;;;;;;;6.35;4.38;;;;;;;31.65;34.88;100817.25;5118879;27;20031;-73
2023/07/09 08:55:43;;;;;;;7.78;3.40;;;;;;;31.67;33.90;100831.72;5122463;27;20389;-72
2023/07/09 08:58:29;;;;;;;4.75;3.20;;;;;;;31.74;33.54;100826.81;5116787;27;20034;-73
2023/07/09 09:01:20;;;;;;;4.70;3.50;;;;;;;31.50;33.62;100794.88;5114480;27;20160;-72
2023/07/09 09:04:02;;;;;;;6.07;3.00;;;;;;;31.67;32.53;100834.50;5117203;27;20501;-73
2023/07/09 09:06:31;;;;;;;5.13;3.03;;;;;;;31.55;32.07;100797.75;5117578;27;20026;-73
2023/07/09 09:09:28;;;;;;;6.35;3.55;;;;;;;31.72;32.47;100819.84;5121104;27;20032;-73
2023/07/09 09:12:08;;;;;;;4.60;3.08;;;;;;;31.77;31.56;100828.22;5116653;27;20031;-72
2023/07/09 09:14:41;;;;;;;3.97;3.38;;;;;;;31.83;31.89;100821.66;5117863;27;20074;-73
2023/07/09 09:17:16;;;;;;;3.90;3.25;;;;;;;31.90;31.88;100828.69;5113213;27;20031;-72
2023/07/09 09:19:53;;;;;;;6.15;3.05;;;;;;;31.72;32.33;100808.75;5127053;27;20068;-73
2023/07/09 09:22:24;;;;;;;3.50;3.00;;;;;;;31.70;32.38;100819.25;5113051;27;20039;-74
2023/07/09 09:24:56;;;;;;;4.38;3.30;;;;;;;31.95;31.74;100825.13;5113317;27;20039;-75
2023/07/09 09:27:22;;;;;;;4.22;3.15;;;;;;;31.85;31.93;100808.38;5118537;27;20023;-73
2023/07/09 09:29:48;;;;;;;6.45;3.80;;;;;;;31.78;32.63;100813.22;5114062;27;20036;-74
2023/07/09 09:32:26;;;;;;;8.85;3.60;;;;;;;31.98;32.31;100817.09;5117444;27;20469;-74
2023/07/09 09:34:52;;;;;;;6.65;3.30;;;;;;;31.86;32.29;100827.53;5113068;27;20023;-73
2023/07/09 09:37:38;;;;;;;3.75;3.08;;;;;;;31.90;31.24;100827.84;5115925;27;20038;-74
2023/07/09 09:40:05;;;;;;;6.53;3.20;;;;;;;31.73;31.70;100805.72;5112384;27;20508;-74
2023/07/09 09:42:30;;;;;;;5.15;3.35;;;;;;;31.86;32.29;100826.69;5120764;27;20031;-72
2023/07/09 09:44:55;;;;;;;6.60;3.20;;;;;;;31.77;32.33;100801.31;5115889;27;20039;-74
2023/07/09 09:47:23;;;;;;;3.88;3.20;;;;;;;31.88;32.57;100814.22;5111515;27;20473;-73
2023/07/09 09:49:48;;;;;;;4.15;2.50;;;;;;;31.80;32.35;100800.84;5120001;27;20034;-74
2023/07/09 09:52:17;;;;;;;3.80;3.20;;;;;;;31.88;31.34;100818.91;5118624;27;20027;-73
2023/07/09 09:55:10;;;;;;;3.55;3.20;;;;;;;31.82;31.19;100820.00;5114009;27;20080;-74
2023/07/09 09:57:36;;;;;;;6.57;3.50;;;;;;;31.94;30.44;100792.91;5119265;27;20568;-74
2023/07/09 10:00:02;;;;;;;3.97;3.35;;;;;;;32.00;30.79;100816.84;5115020;27;20039;-74
2023/07/09 10:02:27;;;;;;;3.53;3.22;;;;;;;31.97;30.89;100809.03;5117381;27;20031;-73
2023/07/09 10:04:53;;;;;;;3.65;3.20;;;;;;;31.89;31.42;100790.91;5110650;27;20072;-74
2023/07/09 10:07:29;;;;;;;3.78;3.35;;;;;;;32.02;31.52;100809.09;5118967;27;20026;-74
2023/07/09 10:09:55;;;;;;;4.60;3.28;;;;;;;32.13;31.05;100816.41;5114622;27;20206;-73
2023/07/09 10:12:36;;;;;;;5.57;3.17;;;;;;;32.08;31.10;100811.63;5110384;27;20037;-73
2023/07/09 10:15:07;;;;;;;5.35;3.35;;;;;;;32.11;30.49;100818.63;5118472;27;20464;-74
2023/07/09 10:17:46;;;;;;;3.85;2.78;;;;;;;32.08;30.04;100803.31;5116296;27;20141;-72
2023/07/09 10:20:50;;;;;;;3.88;2.72;;;;;;;32.09;30.01;100798.59;5119380;27;20110;-73
2023/07/09 10:23:32;;;;;;;3.67;2.78;;;;;;;32.17;29.88;100806.44;5062630;28;20044;-73
2023/07/09 10:26:08;;;;;;;5.47;3.25;;;;;;;32.19;29.62;100799.53;5113400;28;20088;-74
2023/07/09 10:28:42;;;;;;;5.97;3.30;;;;;;;32.30;29.77;100806.00;5123258;27;20775;-74
2023/07/09 10:31:21;;;;;;;4.80;3.00;;;;;;;32.05;29.82;100781.63;5113579;28;20039;-74
2023/07/09 10:33:56;;;;;;;4.07;3.47;;;;;;;32.17;29.88;100796.19;5110297;28;20027;-74
2023/07/09 10:36:40;;;;;;;3.63;3.05;;;;;;;32.21;29.56;100791.75;5122700;27;20023;-73
2023/07/09 10:39:10;;;;;;;3.60;3.00;;;;;;;32.37;29.29;100792.78;5119816;27;20031;-73
2023/07/09 10:41:38;;;;;;;4.30;2.83;;;;;;;32.30;29.35;100789.31;5116053;27;20027;-73
2023/07/09 10:44:05;;;;;;;3.55;3.13;;;;;;;32.40;29.50;100792.25;5117638;27;20077;-73
2023/07/09 10:46:34;;;;;;;4.57;3.05;;;;;;;32.18;29.50;100761.75;5121260;27;20019;-75
2023/07/09 10:49:02;;;;;;;3.92;3.17;;;;;;;32.46;29.14;100782.81;5120763;27;20028;-76
2023/07/09 10:51:32;;;;;;;8.57;3.28;;;;;;;32.51;28.43;100788.44;5119826;27;20043;-77
2023/07/09 10:54:05;;;;;;;3.53;2.75;;;;;;;32.43;28.65;100784.19;5123292;27;20477;-76
2023/07/09 10:56:35;;;;;;;3.13;2.83;;;;;;;32.36;28.85;100782.75;5119251;27;20024;-77
2023/07/09 10:59:18;;;;;;;5.05;3.20;;;;;;;32.40;27.32;100764.47;5111432;27;20156;-76
2023/07/09 11:01:50;;;;;;;4.47;2.93;;;;;;;32.50;27.56;100767.31;5117118;27;20039;-75
2023/07/09 11:04:25;;;;;;;5.63;3.03;;;;;;;32.56;27.84;100780.13;5116667;27;20521;-75
2023/07/09 11:06:53;;;;;;;3.65;2.90;;;;;;;32.47;28.30;100777.00;5120463;27;20051;-76
2023/07/09 11:09:25;;;;;;;8.02;3.58;;;;;;;32.50;28.47;100787.59;5117878;27;20048;-77
2023/07/09 11:11:56;;;;;;;4.20;2.55;;;;;;;32.51;28.70;100767.06;5120697;27;20031;-75
2023/07/09 11:14:38;;;;;;;5.82;3.03;;;;;;;32.48;28.85;100773.16;5113633;27;20469;-76
2023/07/09 11:17:06;;;;;;;5.13;3.35;;;;;;;32.50;29.45;100762.59;5115482;27;20020;-79
2023/07/09 11:19:31;;;;;;;8.85;6.63;;;;;;;32.44;32.54;100774.75;5120513;27;20028;-76
2023/07/09 11:21:59;;;;;;;6.05;3.22;;;;;;;32.42;30.51;100781.69;5120252;27;20363;-76
2023/07/09 11:24:35;;;;;;;5.90;3.13;;;;;;;32.39;30.04;100777.50;5113645;27;20035;-74
2023/07/09 11:27:01;;;;;;;4.15;3.58;;;;;;;32.40;29.73;100781.97;5113150;27;20028;-75
2023/07/09 11:29:28;;;;;;;5.32;3.35;;;;;;;32.44;29.41;100760.88;5115297;27;20031;-76